Gulf Pearl — C6UK9 — position and weather

sailwx.info

Track history (hours):
 
Tides and Currents Weather Stations Pressure Air Temp Water Temp Dewpoint Dewpoint Depression Visibility Wind Speed Wind Dir Waves Ship Positions

Gulf Pearl

Last reported at 2017-Sep-22 02:00 UTC. Time now 2017-Oct-20 12:47 UTC.
Position N 32°36' W 117°50'.
Warning: this ship's position is 28 days out of date.

Length 228 m; draft 8.2 m.

Type: Tanker. MMSI: 311943000.

Date/timePositionNaut miles runAvg speedWind from/ knotsBaromVisibWave heightAir tempDewpointWater temp
2017-Sep-22 02:00N 32°36' W 117°50'611.8
2017-Sep-22 01:29N 32°42' W 117°52'511.3
2017-Sep-22 01:00N 32°47' W 117°54'511.0
2017-Sep-22 00:30N 32°52' W 117°56'611.4
2017-Sep-22 00:00N 32°57' W 117°59'612.5
2017-Sep-21 23:30N 33°03' W 118°01'612.4
2017-Sep-21 23:00N 33°09' W 118°03'612.1
2017-Sep-21 22:30N 33°15' W 118°05'612.3
2017-Sep-21 22:00N 33°21' W 118°07'713.7
2017-Sep-21 21:30N 33°27' W 118°10'714.3
2017-Sep-21 21:00N 33°34' W 118°13'611.0
2017-Sep-21 20:29N 33°40' W 118°12'4 7.9
2017-Sep-21 20:00N 33°44' W 118°10'1 1.6
2017-Sep-21 19:30N 33°44' W 118°09'0 0.1
2017-Sep-21 19:00N 33°44' W 118°09'0 0.2
2017-Sep-21 18:29N 33°44' W 118°09'0 0.0
2017-Sep-21 18:00N 33°44' W 118°09'0 0.1
2017-Sep-21 17:30N 33°44' W 118°09'0 0.1
2017-Sep-21 17:00N 33°44' W 118°09'0 0.0
2017-Sep-21 16:30N 33°44' W 118°09'0 0.1
2017-Sep-21 16:00N 33°44' W 118°10'0 0.1
2017-Sep-21 15:30N 33°44' W 118°09'0 0.1
2017-Sep-21 14:57N 33°44' W 118°09'0 0.0
2017-Sep-21 14:27N 33°44' W 118°09'0 0.1
2017-Sep-21 14:00N 33°44' W 118°09'0 0.0
2017-Sep-21 13:30N 33°44' W 118°09'0 0.1
2017-Sep-21 12:55N 33°44' W 118°09'0 0.1
2017-Sep-21 12:30N 33°44' W 118°09'0 0.0
2017-Sep-21 11:43N 33°44' W 118°09'0 0.2
2017-Sep-21 11:30N 33°44' W 118°09'0 0.0
2017-Sep-21 10:57N 33°44' W 118°09'0 0.0
2017-Sep-21 10:30N 33°44' W 118°09'0 0.0
2017-Sep-21 10:00N 33°44' W 118°09'0 0.1
2017-Sep-21 09:30N 33°44' W 118°09'0 0.1
2017-Sep-21 09:00N 33°44' W 118°09'0 0.0
2017-Sep-21 08:28N 33°44' W 118°09'0 0.1
2017-Sep-21 08:00N 33°44' W 118°09'0 0.0
2017-Sep-21 07:30N 33°44' W 118°09'0 0.0
2017-Sep-21 06:57N 33°44' W 118°09'0 0.0
2017-Sep-21 06:30N 33°44' W 118°09'0 0.1
2017-Sep-21 06:00N 33°44' W 118°09'0 0.0
2017-Sep-21 05:30N 33°44' W 118°09'0 0.1
2017-Sep-21 05:00N 33°44' W 118°09'0 0.0
2017-Sep-21 04:30N 33°44' W 118°09'0 0.1
2017-Sep-21 04:00N 33°44' W 118°09'0 0.1
2017-Sep-21 03:29N 33°44' W 118°09'0 0.1
2017-Sep-21 03:00N 33°44' W 118°09'0 0.1
2017-Sep-21 02:28N 33°44' W 118°09'0 0.0
2017-Sep-21 01:57N 33°44' W 118°09'0 0.0
2017-Sep-21 01:30N 33°44' W 118°09'0 0.0
2017-Sep-21 00:59N 33°44' W 118°09'0 0.0
2017-Sep-21 00:30N 33°44' W 118°09'0 0.0
2017-Sep-21 00:00N 33°44' W 118°09'0 0.0
2017-Sep-20 23:30N 33°44' W 118°09'0 0.1
2017-Sep-20 22:59N 33°44' W 118°09'0 0.0
2017-Sep-20 22:30N 33°44' W 118°09'0 0.0
2017-Sep-20 22:00N 33°44' W 118°09'0 0.0
2017-Sep-20 21:30N 33°44' W 118°09'0 0.1
2017-Sep-20 21:00N 33°44' W 118°09'0 0.1
2017-Sep-20 20:30N 33°44' W 118°09'1 1.3
2017-Sep-20 20:00N 33°44' W 118°10'3 6.5
2017-Sep-20 19:30N 33°40' W 118°11'3 6.2
2017-Sep-20 19:00N 33°37' W 118°11'4 8.7
2017-Sep-20 18:30N 33°36' W 118°16'5 9.7
2017-Sep-20 17:59N 33°36' W 118°22'710.0
2017-Sep-20 17:20N 33°40' W 118°29'310.0
2017-Sep-20 17:00N 33°42' W 118°32'510.1
2017-Sep-20 16:29N 33°45' W 118°37'611.7
2017-Sep-20 16:00N 33°50' W 118°33'510.1
2017-Sep-20 15:29N 33°54' W 118°29'0 0.0
2017-Sep-20 13:12N 33°54' W 118°29'0 0.5
2017-Sep-20 13:00N 33°54' W 118°29'1 2.8
2017-Sep-20 12:30N 33°54' W 118°28'1 0.0
2017-Sep-19 14:50N 33°54' W 118°27'0 0.2
2017-Sep-19 14:30N 33°54' W 118°27'2 0.5
2017-Sep-19 10:47N 33°53' W 118°29'0 0.0
2017-Sep-19 08:47N 33°53' W 118°29'0 0.0
2017-Sep-19 07:23N 33°53' W 118°29'0 0.0
2017-Sep-19 06:50N 33°53' W 118°29'0 0.0
2017-Sep-19 06:23N 33°53' W 118°29'0 0.0
2017-Sep-19 05:59N 33°53' W 118°29'0 0.0
2017-Sep-19 05:20N 33°53' W 118°29'0 0.1
2017-Sep-19 04:59N 33°53' W 118°29'0 0.1
2017-Sep-19 04:26N 33°53' W 118°29'0 0.0
2017-Sep-19 03:56N 33°53' W 118°29'0 0.0
2017-Sep-19 03:29N 33°53' W 118°29'0 0.0
2017-Sep-19 01:26N 33°53' W 118°29'0 0.1
2017-Sep-19 00:38N 33°53' W 118°29'0 0.3
2017-Sep-19 00:29N 33°53' W 118°29'0 0.0
2017-Sep-18 16:53N 33°53' W 118°29'0 0.0
2017-Sep-18 16:26N 33°53' W 118°29'0 0.1
2017-Sep-18 15:32N 33°53' W 118°29'0 0.2
2017-Sep-18 15:14N 33°53' W 118°29'0 0.4
2017-Sep-18 14:56N 33°53' W 118°29'0 0.0
2017-Sep-18 13:38N 33°53' W 118°29'0 0.2
2017-Sep-18 13:23N 33°53' W 118°29'0 0.5
2017-Sep-18 13:00N 33°53' W 118°29'3 6.8
2017-Sep-18 12:30N 33°51' W 118°33'611.6
2017-Sep-18 12:01N 33°48' W 118°39'611.8
2017-Sep-18 11:30N 33°46' W 118°45'611.8
2017-Sep-18 11:00N 33°45' W 118°52'612.2
2017-Sep-18 10:31N 33°44' W 118°59'611.7
2017-Sep-18 10:00N 33°43' W 119°06'611.7
2017-Sep-18 09:30N 33°42' W 119°13'611.9
2017-Sep-18 09:00N 33°41' W 119°20'611.8
2017-Sep-18 08:30N 33°41' W 119°27'611.7
2017-Sep-18 08:00N 33°40' W 119°34'611.2
2017-Sep-18 07:30N 33°39' W 119°41'611.2
2017-Sep-18 07:00N 33°39' W 119°48'611.5
2017-Sep-18 06:31N 33°38' W 119°55'611.4
2017-Sep-18 06:01N 33°38' W 120°01'611.6
2017-Sep-18 05:30N 33°37' W 120°08'612.1
2017-Sep-18 05:01N 33°37' W 120°16'612.3
2017-Sep-18 04:30N 33°37' W 120°23'612.5
2017-Sep-18 04:01N 33°38' W 120°30'612.1
2017-Sep-18 03:31N 33°38' W 120°38'611.9
2017-Sep-18 03:00N 33°39' W 120°45'612.1
2017-Sep-18 02:30N 33°39' W 120°52'612.1
2017-Sep-18 02:00N 33°40' W 120°59'612.2
2017-Sep-18 01:31N 33°40' W 121°07'712.4
2017-Sep-18 00:58N 33°41' W 121°15'612.3
2017-Sep-18 00:31N 33°42' W 121°21'612.2
2017-Sep-18 00:00N 33°42' W 121°29'4 7.6
2017-Sep-17 23:30N 33°43' W 121°33'2510.2
2017-Sep-17 21:02N 34°02' W 121°53'010.4
2017-Sep-17 21:00N 34°02' W 121°53'4810.7
2017-Sep-17 16:33N 34°43' W 122°24'311.9
2017-Sep-17 16:18N 34°45' W 122°26'412.3
2017-Sep-17 16:01N 34°48' W 122°28'2312.3
2017-Sep-17 14:09N 35°08' W 122°43'211.7
2017-Sep-17 14:01N 35°09' W 122°44'611.6
2017-Sep-17 13:30N 35°14' W 122°48'611.5
2017-Sep-17 12:57N 35°19' W 122°52'511.1
2017-Sep-17 12:31N 35°23' W 122°55'611.2
2017-Sep-17 12:00N 35°28' W 122°59'611.5
2017-Sep-17 11:30N 35°33' W 123°02'911.9
2017-Sep-17 10:45N 35°41' W 123°08'311.9
2017-Sep-17 10:30N 35°44' W 123°10'611.8
2017-Sep-17 10:00N 35°49' W 123°13'812.0
2017-Sep-17 09:20N 35°56' W 123°17'512.1
2017-Sep-17 08:57N 36°00' W 123°20'512.0
2017-Sep-17 08:30N 36°05' W 123°23'612.0
2017-Sep-17 08:00N 36°10' W 123°27'612.0
2017-Sep-17 07:30N 36°16' W 123°30'611.7
2017-Sep-17 07:00N 36°21' W 123°33'3811.7
2017-Sep-17 03:45N 36°55' W 123°54'8111.9
2017-Sep-16 20:56N 38°06' W 124°43'512.2
2017-Sep-16 20:30N 38°11' W 124°46'1212.1
2017-Sep-16 19:30N 38°21' W 124°54'612.0
2017-Sep-16 18:59N 38°27' W 124°58'611.7
2017-Sep-16 18:30N 38°32' W 125°01'4911.9
2017-Sep-16 14:25N 39°14' W 125°32'53611.4
2017-Sep-14 15:28N 48°09' W 125°59'613.2
2017-Sep-14 15:00N 48°13' W 125°52'613.2
2017-Sep-14 14:30N 48°17' W 125°44'713.1
2017-Sep-14 14:00N 48°21' W 125°36'612.7
2017-Sep-14 13:30N 48°24' W 125°28'713.2
2017-Sep-14 13:00N 48°28' W 125°20'713.0
2017-Sep-14 12:30N 48°32' W 125°11'713.3
2017-Sep-14 12:00N 48°32' W 125°01'713.9
2017-Sep-14 11:30N 48°32' W 124°51'714.1
2017-Sep-14 11:01N 48°30' W 124°41'715.0
2017-Sep-14 10:31N 48°27' W 124°30'815.1
2017-Sep-14 10:01N 48°24' W 124°20'815.2
2017-Sep-14 09:31N 48°21' W 124°09'815.2
2017-Sep-14 09:01N 48°18' W 123°58'714.9
2017-Sep-14 08:30N 48°17' W 123°48'815.1
2017-Sep-14 08:01N 48°16' W 123°36'712.4
2017-Sep-14 07:29N 48°19' W 123°28'510.3
2017-Sep-14 07:00N 48°23' W 123°24'4 8.6
2017-Sep-14 06:31N 48°23' W 123°17'5 9.6
2017-Sep-14 06:01N 48°27' W 123°12'510.9
2017-Sep-14 05:31N 48°32' W 123°13'510.8
2017-Sep-14 05:01N 48°37' W 123°14'5 9.7
2017-Sep-14 04:31N 48°42' W 123°14'510.3
2017-Sep-14 04:01N 48°45' W 123°07'5 9.8
2017-Sep-14 03:31N 48°47' W 123°01'4 7.2
2017-Sep-14 03:00N 48°51' W 123°03'713.4
2017-Sep-14 02:30N 48°55' W 123°10'613.0
2017-Sep-14 02:01N 48°60' W 123°18'713.1
2017-Sep-14 01:30N 49°05' W 123°24'713.3
2017-Sep-14 01:00N 49°12' W 123°22'612.7
2017-Sep-14 00:31N 49°18' W 123°19'3 6.9
2017-Sep-14 00:01N 49°19' W 123°14'2 3.5
2017-Sep-13 23:31N 49°19' W 123°12'2 4.9
2017-Sep-13 23:01N 49°18' W 123°15'3 5.9
2017-Sep-13 22:31N 49°19' W 123°20'1 1.2
2017-Sep-13 22:01N 49°18' W 123°20'2 3.8
2017-Sep-13 21:30N 49°19' W 123°17'5 9.4
2017-Sep-13 21:01N 49°19' W 123°10'3 6.5
2017-Sep-13 20:30N 49°18' W 123°05'3 6.3
2017-Sep-13 20:00N 49°18' W 123°00'2 3.6
2017-Sep-13 19:31N 49°18' W 122°57'0 0.6
2017-Sep-13 19:00N 49°18' W 122°57'0 0.1
2017-Sep-13 18:27N 49°17' W 122°57'0 0.0
2017-Sep-13 17:54N 49°17' W 122°57'0 0.0
2017-Sep-13 17:27N 49°17' W 122°57'0 0.0
2017-Sep-13 16:51N 49°17' W 122°57'0 0.0
2017-Sep-13 16:27N 49°17' W 122°57'0 0.0
2017-Sep-13 15:57N 49°17' W 122°57'0 0.0
2017-Sep-13 15:30N 49°17' W 122°57'0 0.0
2017-Sep-13 15:00N 49°17' W 122°57'0 0.0
2017-Sep-13 14:30N 49°17' W 122°57'0 0.0
2017-Sep-13 13:57N 49°17' W 122°57'0 0.0
2017-Sep-13 13:21N 49°17' W 122°57'0 0.0
2017-Sep-13 13:00N 49°17' W 122°57'0 0.0
2017-Sep-13 12:30N 49°17' W 122°57'0 0.0
2017-Sep-13 11:54N 49°17' W 122°57'0 0.0
2017-Sep-13 11:30N 49°17' W 122°57'0 0.0
2017-Sep-13 11:00N 49°17' W 122°57'0 0.0
2017-Sep-13 10:30N 49°17' W 122°57'0 0.0
2017-Sep-13 10:00N 49°17' W 122°57'0 0.0
2017-Sep-13 09:30N 49°17' W 122°57'0 0.0
2017-Sep-13 09:00N 49°17' W 122°57'0 0.0
2017-Sep-13 08:30N 49°17' W 122°57'0 0.0
2017-Sep-13 08:00N 49°17' W 122°57'0 0.0
2017-Sep-13 07:30N 49°17' W 122°57'0 0.0
2017-Sep-13 07:00N 49°17' W 122°57'0 0.0
2017-Sep-13 06:30N 49°17' W 122°57'0 0.0
2017-Sep-13 06:00N 49°17' W 122°57'0 0.0
2017-Sep-13 05:30N 49°17' W 122°57'0 0.0
2017-Sep-13 04:57N 49°17' W 122°57'0 0.0
2017-Sep-13 04:30N 49°17' W 122°57'0 0.0
2017-Sep-13 03:57N 49°17' W 122°57'0 0.0
2017-Sep-13 03:18N 49°17' W 122°57'0 0.0
2017-Sep-13 03:00N 49°17' W 122°57'0 0.0
2017-Sep-13 02:30N 49°17' W 122°57'0 0.0
2017-Sep-13 02:00N 49°17' W 122°57'0 0.0
2017-Sep-13 01:27N 49°17' W 122°57'0 0.0
2017-Sep-13 00:57N 49°17' W 122°57'0 0.0
2017-Sep-13 00:27N 49°17' W 122°57'0 0.0
2017-Sep-12 23:57N 49°17' W 122°57'0 0.0
2017-Sep-12 23:27N 49°17' W 122°57'0 0.0
2017-Sep-12 23:00N 49°17' W 122°57'0 0.0
2017-Sep-12 22:30N 49°17' W 122°57'0 0.0
2017-Sep-12 21:57N 49°17' W 122°57'0 0.0
2017-Sep-12 21:30N 49°17' W 122°57'0 0.0
2017-Sep-12 20:57N 49°17' W 122°57'0 0.0
2017-Sep-12 19:51N 49°17' W 122°57'0 0.0
2017-Sep-12 19:30N 49°17' W 122°57'0 0.0
2017-Sep-12 19:00N 49°17' W 122°57'0 0.0
2017-Sep-12 18:30N 49°17' W 122°57'0 0.0
2017-Sep-12 18:00N 49°17' W 122°57'0 0.0
2017-Sep-12 17:30N 49°17' W 122°57'0 0.0
2017-Sep-12 17:00N 49°17' W 122°57'0 0.0
2017-Sep-12 16:30N 49°17' W 122°57'0 0.0
2017-Sep-12 16:00N 49°17' W 122°57'0 0.0
2017-Sep-12 15:30N 49°17' W 122°57'0 0.0
2017-Sep-12 15:00N 49°17' W 122°57'0 0.0
2017-Sep-12 14:30N 49°17' W 122°57'0 0.0
2017-Sep-12 14:00N 49°17' W 122°57'0 0.4
2017-Sep-12 13:29N 49°18' W 122°57'0 0.1
2017-Sep-12 12:59N 49°18' W 122°57'0 0.2
2017-Sep-12 12:29N 49°18' W 122°57'0 0.1
2017-Sep-12 11:59N 49°18' W 122°57'0 0.0
2017-Sep-12 11:23N 49°18' W 122°57'0 0.0
2017-Sep-12 10:57N 49°18' W 122°57'0 0.0
2017-Sep-12 10:23N 49°18' W 122°57'0 0.0
2017-Sep-12 09:59N 49°18' W 122°57'0 0.0
2017-Sep-12 09:29N 49°18' W 122°57'0 0.1
2017-Sep-12 08:56N 49°18' W 122°57'0 0.1
2017-Sep-12 08:23N 49°18' W 122°57'0 0.1
2017-Sep-12 07:59N 49°18' W 122°57'0 0.1
2017-Sep-12 07:29N 49°18' W 122°57'0 0.1
2017-Sep-12 06:59N 49°18' W 122°57'0 0.0
2017-Sep-12 06:29N 49°18' W 122°57'0 0.1
2017-Sep-12 05:53N 49°18' W 122°57'0 0.2
2017-Sep-12 05:29N 49°18' W 122°57'0 0.2
2017-Sep-12 04:56N 49°18' W 122°57'0 0.2
2017-Sep-12 04:23N 49°18' W 122°57'0 0.2
2017-Sep-12 03:59N 49°18' W 122°57'0 0.0
2017-Sep-12 03:29N 49°18' W 122°57'0 0.1
2017-Sep-12 02:56N 49°18' W 122°57'0 0.0
2017-Sep-12 02:29N 49°18' W 122°57'  
Track history (hours):
 
Tides and Currents Weather Stations Pressure Air Temp Water Temp Dewpoint Dewpoint Depression Visibility Wind Speed Wind Dir Waves Ship Positions

Gulf Pearl

Last reported at 2017-Sep-22 02:00 UTC. Time now 2017-Oct-20 12:47 UTC.
Position N 32°36' W 117°50'.
Warning: this ship's position is 28 days out of date.

Length 228 m; draft 8.2 m.

Type: Tanker. MMSI: 311943000.

Date/timePositionNaut miles runAvg speedWind from/ knotsBaromVisibWave heightAir tempDewpointWater temp
2017-Sep-22 02:00N 32°36' W 117°50'611.8
2017-Sep-22 01:29N 32°42' W 117°52'511.3
2017-Sep-22 01:00N 32°47' W 117°54'511.0
2017-Sep-22 00:30N 32°52' W 117°56'611.4
2017-Sep-22 00:00N 32°57' W 117°59'612.5
2017-Sep-21 23:30N 33°03' W 118°01'612.4
2017-Sep-21 23:00N 33°09' W 118°03'612.1
2017-Sep-21 22:30N 33°15' W 118°05'612.3
2017-Sep-21 22:00N 33°21' W 118°07'713.7
2017-Sep-21 21:30N 33°27' W 118°10'714.3
2017-Sep-21 21:00N 33°34' W 118°13'611.0
2017-Sep-21 20:29N 33°40' W 118°12'4 7.9
2017-Sep-21 20:00N 33°44' W 118°10'1 1.6
2017-Sep-21 19:30N 33°44' W 118°09'0 0.1
2017-Sep-21 19:00N 33°44' W 118°09'0 0.2
2017-Sep-21 18:29N 33°44' W 118°09'0 0.0
2017-Sep-21 18:00N 33°44' W 118°09'0 0.1
2017-Sep-21 17:30N 33°44' W 118°09'0 0.1
2017-Sep-21 17:00N 33°44' W 118°09'0 0.0
2017-Sep-21 16:30N 33°44' W 118°09'0 0.1
2017-Sep-21 16:00N 33°44' W 118°10'0 0.1
2017-Sep-21 15:30N 33°44' W 118°09'0 0.1
2017-Sep-21 14:57N 33°44' W 118°09'0 0.0
2017-Sep-21 14:27N 33°44' W 118°09'0 0.1
2017-Sep-21 14:00N 33°44' W 118°09'0 0.0
2017-Sep-21 13:30N 33°44' W 118°09'0 0.1
2017-Sep-21 12:55N 33°44' W 118°09'0 0.1
2017-Sep-21 12:30N 33°44' W 118°09'0 0.0
2017-Sep-21 11:43N 33°44' W 118°09'0 0.2
2017-Sep-21 11:30N 33°44' W 118°09'0 0.0
2017-Sep-21 10:57N 33°44' W 118°09'0 0.0
2017-Sep-21 10:30N 33°44' W 118°09'0 0.0
2017-Sep-21 10:00N 33°44' W 118°09'0 0.1
2017-Sep-21 09:30N 33°44' W 118°09'0 0.1
2017-Sep-21 09:00N 33°44' W 118°09'0 0.0
2017-Sep-21 08:28N 33°44' W 118°09'0 0.1
2017-Sep-21 08:00N 33°44' W 118°09'0 0.0
2017-Sep-21 07:30N 33°44' W 118°09'0 0.0
2017-Sep-21 06:57N 33°44' W 118°09'0 0.0
2017-Sep-21 06:30N 33°44' W 118°09'0 0.1
2017-Sep-21 06:00N 33°44' W 118°09'0 0.0
2017-Sep-21 05:30N 33°44' W 118°09'0 0.1
2017-Sep-21 05:00N 33°44' W 118°09'0 0.0
2017-Sep-21 04:30N 33°44' W 118°09'0 0.1
2017-Sep-21 04:00N 33°44' W 118°09'0 0.1
2017-Sep-21 03:29N 33°44' W 118°09'0 0.1
2017-Sep-21 03:00N 33°44' W 118°09'0 0.1
2017-Sep-21 02:28N 33°44' W 118°09'0 0.0
2017-Sep-21 01:57N 33°44' W 118°09'0 0.0
2017-Sep-21 01:30N 33°44' W 118°09'0 0.0
2017-Sep-21 00:59N 33°44' W 118°09'0 0.0
2017-Sep-21 00:30N 33°44' W 118°09'0 0.0
2017-Sep-21 00:00N 33°44' W 118°09'0 0.0
2017-Sep-20 23:30N 33°44' W 118°09'0 0.1
2017-Sep-20 22:59N 33°44' W 118°09'0 0.0
2017-Sep-20 22:30N 33°44' W 118°09'0 0.0
2017-Sep-20 22:00N 33°44' W 118°09'0 0.0
2017-Sep-20 21:30N 33°44' W 118°09'0 0.1
2017-Sep-20 21:00N 33°44' W 118°09'0 0.1
2017-Sep-20 20:30N 33°44' W 118°09'1 1.3
2017-Sep-20 20:00N 33°44' W 118°10'3 6.5
2017-Sep-20 19:30N 33°40' W 118°11'3 6.2
2017-Sep-20 19:00N 33°37' W 118°11'4 8.7
2017-Sep-20 18:30N 33°36' W 118°16'5 9.7
2017-Sep-20 17:59N 33°36' W 118°22'710.0
2017-Sep-20 17:20N 33°40' W 118°29'310.0
2017-Sep-20 17:00N 33°42' W 118°32'510.1
2017-Sep-20 16:29N 33°45' W 118°37'611.7
2017-Sep-20 16:00N 33°50' W 118°33'510.1
2017-Sep-20 15:29N 33°54' W 118°29'0 0.0
2017-Sep-20 13:12N 33°54' W 118°29'0 0.5
2017-Sep-20 13:00N 33°54' W 118°29'1 2.8
2017-Sep-20 12:30N 33°54' W 118°28'1 0.0
2017-Sep-19 14:50N 33°54' W 118°27'0 0.2
2017-Sep-19 14:30N 33°54' W 118°27'2 0.5
2017-Sep-19 10:47N 33°53' W 118°29'0 0.0
2017-Sep-19 08:47N 33°53' W 118°29'0 0.0
2017-Sep-19 07:23N 33°53' W 118°29'0 0.0
2017-Sep-19 06:50N 33°53' W 118°29'0 0.0
2017-Sep-19 06:23N 33°53' W 118°29'0 0.0
2017-Sep-19 05:59N 33°53' W 118°29'0 0.0
2017-Sep-19 05:20N 33°53' W 118°29'0 0.1
2017-Sep-19 04:59N 33°53' W 118°29'0 0.1
2017-Sep-19 04:26N 33°53' W 118°29'0 0.0
2017-Sep-19 03:56N 33°53' W 118°29'0 0.0
2017-Sep-19 03:29N 33°53' W 118°29'0 0.0
2017-Sep-19 01:26N 33°53' W 118°29'0 0.1
2017-Sep-19 00:38N 33°53' W 118°29'0 0.3
2017-Sep-19 00:29N 33°53' W 118°29'0 0.0
2017-Sep-18 16:53N 33°53' W 118°29'0 0.0
2017-Sep-18 16:26N 33°53' W 118°29'0 0.1
2017-Sep-18 15:32N 33°53' W 118°29'0 0.2
2017-Sep-18 15:14N 33°53' W 118°29'0 0.4
2017-Sep-18 14:56N 33°53' W 118°29'0 0.0
2017-Sep-18 13:38N 33°53' W 118°29'0 0.2
2017-Sep-18 13:23N 33°53' W 118°29'0 0.5
2017-Sep-18 13:00N 33°53' W 118°29'3 6.8
2017-Sep-18 12:30N 33°51' W 118°33'611.6
2017-Sep-18 12:01N 33°48' W 118°39'611.8
2017-Sep-18 11:30N 33°46' W 118°45'611.8
2017-Sep-18 11:00N 33°45' W 118°52'612.2
2017-Sep-18 10:31N 33°44' W 118°59'611.7
2017-Sep-18 10:00N 33°43' W 119°06'611.7
2017-Sep-18 09:30N 33°42' W 119°13'611.9
2017-Sep-18 09:00N 33°41' W 119°20'611.8
2017-Sep-18 08:30N 33°41' W 119°27'611.7
2017-Sep-18 08:00N 33°40' W 119°34'611.2
2017-Sep-18 07:30N 33°39' W 119°41'611.2
2017-Sep-18 07:00N 33°39' W 119°48'611.5
2017-Sep-18 06:31N 33°38' W 119°55'611.4
2017-Sep-18 06:01N 33°38' W 120°01'611.6
2017-Sep-18 05:30N 33°37' W 120°08'612.1
2017-Sep-18 05:01N 33°37' W 120°16'612.3
2017-Sep-18 04:30N 33°37' W 120°23'612.5
2017-Sep-18 04:01N 33°38' W 120°30'612.1
2017-Sep-18 03:31N 33°38' W 120°38'611.9
2017-Sep-18 03:00N 33°39' W 120°45'612.1
2017-Sep-18 02:30N 33°39' W 120°52'612.1
2017-Sep-18 02:00N 33°40' W 120°59'612.2
2017-Sep-18 01:31N 33°40' W 121°07'712.4
2017-Sep-18 00:58N 33°41' W 121°15'612.3
2017-Sep-18 00:31N 33°42' W 121°21'612.2
2017-Sep-18 00:00N 33°42' W 121°29'4 7.6
2017-Sep-17 23:30N 33°43' W 121°33'2510.2
2017-Sep-17 21:02N 34°02' W 121°53'010.4
2017-Sep-17 21:00N 34°02' W 121°53'4810.7
2017-Sep-17 16:33N 34°43' W 122°24'311.9
2017-Sep-17 16:18N 34°45' W 122°26'412.3
2017-Sep-17 16:01N 34°48' W 122°28'2312.3
2017-Sep-17 14:09N 35°08' W 122°43'211.7
2017-Sep-17 14:01N 35°09' W 122°44'611.6
2017-Sep-17 13:30N 35°14' W 122°48'611.5
2017-Sep-17 12:57N 35°19' W 122°52'511.1
2017-Sep-17 12:31N 35°23' W 122°55'611.2
2017-Sep-17 12:00N 35°28' W 122°59'611.5
2017-Sep-17 11:30N 35°33' W 123°02'911.9
2017-Sep-17 10:45N 35°41' W 123°08'311.9
2017-Sep-17 10:30N 35°44' W 123°10'611.8
2017-Sep-17 10:00N 35°49' W 123°13'812.0
2017-Sep-17 09:20N 35°56' W 123°17'512.1
2017-Sep-17 08:57N 36°00' W 123°20'512.0
2017-Sep-17 08:30N 36°05' W 123°23'612.0
2017-Sep-17 08:00N 36°10' W 123°27'612.0
2017-Sep-17 07:30N 36°16' W 123°30'611.7
2017-Sep-17 07:00N 36°21' W 123°33'3811.7
2017-Sep-17 03:45N 36°55' W 123°54'8111.9
2017-Sep-16 20:56N 38°06' W 124°43'512.2
2017-Sep-16 20:30N 38°11' W 124°46'1212.1
2017-Sep-16 19:30N 38°21' W 124°54'612.0
2017-Sep-16 18:59N 38°27' W 124°58'611.7
2017-Sep-16 18:30N 38°32' W 125°01'4911.9
2017-Sep-16 14:25N 39°14' W 125°32'53611.4
2017-Sep-14 15:28N 48°09' W 125°59'613.2
2017-Sep-14 15:00N 48°13' W 125°52'613.2
2017-Sep-14 14:30N 48°17' W 125°44'713.1
2017-Sep-14 14:00N 48°21' W 125°36'612.7
2017-Sep-14 13:30N 48°24' W 125°28'713.2
2017-Sep-14 13:00N 48°28' W 125°20'713.0
2017-Sep-14 12:30N 48°32' W 125°11'713.3
2017-Sep-14 12:00N 48°32' W 125°01'713.9
2017-Sep-14 11:30N 48°32' W 124°51'714.1
2017-Sep-14 11:01N 48°30' W 124°41'715.0
2017-Sep-14 10:31N 48°27' W 124°30'815.1
2017-Sep-14 10:01N 48°24' W 124°20'815.2
2017-Sep-14 09:31N 48°21' W 124°09'815.2
2017-Sep-14 09:01N 48°18' W 123°58'714.9
2017-Sep-14 08:30N 48°17' W 123°48'815.1
2017-Sep-14 08:01N 48°16' W 123°36'712.4
2017-Sep-14 07:29N 48°19' W 123°28'510.3
2017-Sep-14 07:00N 48°23' W 123°24'4 8.6
2017-Sep-14 06:31N 48°23' W 123°17'5 9.6
2017-Sep-14 06:01N 48°27' W 123°12'510.9
2017-Sep-14 05:31N 48°32' W 123°13'510.8
2017-Sep-14 05:01N 48°37' W 123°14'5 9.7
2017-Sep-14 04:31N 48°42' W 123°14'510.3
2017-Sep-14 04:01N 48°45' W 123°07'5 9.8
2017-Sep-14 03:31N 48°47' W 123°01'4 7.2
2017-Sep-14 03:00N 48°51' W 123°03'713.4
2017-Sep-14 02:30N 48°55' W 123°10'613.0
2017-Sep-14 02:01N 48°60' W 123°18'713.1
2017-Sep-14 01:30N 49°05' W 123°24'713.3
2017-Sep-14 01:00N 49°12' W 123°22'612.7
2017-Sep-14 00:31N 49°18' W 123°19'3 6.9
2017-Sep-14 00:01N 49°19' W 123°14'2 3.5
2017-Sep-13 23:31N 49°19' W 123°12'2 4.9
2017-Sep-13 23:01N 49°18' W 123°15'3 5.9
2017-Sep-13 22:31N 49°19' W 123°20'1 1.2
2017-Sep-13 22:01N 49°18' W 123°20'2 3.8
2017-Sep-13 21:30N 49°19' W 123°17'5 9.4
2017-Sep-13 21:01N 49°19' W 123°10'3 6.5
2017-Sep-13 20:30N 49°18' W 123°05'3 6.3
2017-Sep-13 20:00N 49°18' W 123°00'2 3.6
2017-Sep-13 19:31N 49°18' W 122°57'0 0.6
2017-Sep-13 19:00N 49°18' W 122°57'0 0.1
2017-Sep-13 18:27N 49°17' W 122°57'0 0.0
2017-Sep-13 17:54N 49°17' W 122°57'0 0.0
2017-Sep-13 17:27N 49°17' W 122°57'0 0.0
2017-Sep-13 16:51N 49°17' W 122°57'0 0.0
2017-Sep-13 16:27N 49°17' W 122°57'0 0.0
2017-Sep-13 15:57N 49°17' W 122°57'0 0.0
2017-Sep-13 15:30N 49°17' W 122°57'0 0.0
2017-Sep-13 15:00N 49°17' W 122°57'0 0.0
2017-Sep-13 14:30N 49°17' W 122°57'0 0.0
2017-Sep-13 13:57N 49°17' W 122°57'0 0.0
2017-Sep-13 13:21N 49°17' W 122°57'0 0.0
2017-Sep-13 13:00N 49°17' W 122°57'0 0.0
2017-Sep-13 12:30N 49°17' W 122°57'0 0.0
2017-Sep-13 11:54N 49°17' W 122°57'0 0.0
2017-Sep-13 11:30N 49°17' W 122°57'0 0.0
2017-Sep-13 11:00N 49°17' W 122°57'0 0.0
2017-Sep-13 10:30N 49°17' W 122°57'0 0.0
2017-Sep-13 10:00N 49°17' W 122°57'0 0.0
2017-Sep-13 09:30N 49°17' W 122°57'0 0.0
2017-Sep-13 09:00N 49°17' W 122°57'0 0.0
2017-Sep-13 08:30N 49°17' W 122°57'0 0.0
2017-Sep-13 08:00N 49°17' W 122°57'0 0.0
2017-Sep-13 07:30N 49°17' W 122°57'0 0.0
2017-Sep-13 07:00N 49°17' W 122°57'0 0.0
2017-Sep-13 06:30N 49°17' W 122°57'0 0.0
2017-Sep-13 06:00N 49°17' W 122°57'0 0.0
2017-Sep-13 05:30N 49°17' W 122°57'0 0.0
2017-Sep-13 04:57N 49°17' W 122°57'0 0.0
2017-Sep-13 04:30N 49°17' W 122°57'0 0.0
2017-Sep-13 03:57N 49°17' W 122°57'0 0.0
2017-Sep-13 03:18N 49°17' W 122°57'0 0.0
2017-Sep-13 03:00N 49°17' W 122°57'0 0.0
2017-Sep-13 02:30N 49°17' W 122°57'0 0.0
2017-Sep-13 02:00N 49°17' W 122°57'0 0.0
2017-Sep-13 01:27N 49°17' W 122°57'0 0.0
2017-Sep-13 00:57N 49°17' W 122°57'0 0.0
2017-Sep-13 00:27N 49°17' W 122°57'0 0.0
2017-Sep-12 23:57N 49°17' W 122°57'0 0.0
2017-Sep-12 23:27N 49°17' W 122°57'0 0.0
2017-Sep-12 23:00N 49°17' W 122°57'0 0.0
2017-Sep-12 22:30N 49°17' W 122°57'0 0.0
2017-Sep-12 21:57N 49°17' W 122°57'0 0.0
2017-Sep-12 21:30N 49°17' W 122°57'0 0.0
2017-Sep-12 20:57N 49°17' W 122°57'0 0.0
2017-Sep-12 19:51N 49°17' W 122°57'0 0.0
2017-Sep-12 19:30N 49°17' W 122°57'0 0.0
2017-Sep-12 19:00N 49°17' W 122°57'0 0.0
2017-Sep-12 18:30N 49°17' W 122°57'0 0.0
2017-Sep-12 18:00N 49°17' W 122°57'0 0.0
2017-Sep-12 17:30N 49°17' W 122°57'0 0.0
2017-Sep-12 17:00N 49°17' W 122°57'0 0.0
2017-Sep-12 16:30N 49°17' W 122°57'0 0.0
2017-Sep-12 16:00N 49°17' W 122°57'0 0.0
2017-Sep-12 15:30N 49°17' W 122°57'0 0.0
2017-Sep-12 15:00N 49°17' W 122°57'0 0.0
2017-Sep-12 14:30N 49°17' W 122°57'0 0.0
2017-Sep-12 14:00N 49°17' W 122°57'0 0.4
2017-Sep-12 13:29N 49°18' W 122°57'0 0.1
2017-Sep-12 12:59N 49°18' W 122°57'0 0.2
2017-Sep-12 12:29N 49°18' W 122°57'0 0.1
2017-Sep-12 11:59N 49°18' W 122°57'0 0.0
2017-Sep-12 11:23N 49°18' W 122°57'0 0.0
2017-Sep-12 10:57N 49°18' W 122°57'0 0.0
2017-Sep-12 10:23N 49°18' W 122°57'0 0.0
2017-Sep-12 09:59N 49°18' W 122°57'0 0.0
2017-Sep-12 09:29N 49°18' W 122°57'0 0.1
2017-Sep-12 08:56N 49°18' W 122°57'0 0.1
2017-Sep-12 08:23N 49°18' W 122°57'0 0.1
2017-Sep-12 07:59N 49°18' W 122°57'0 0.1
2017-Sep-12 07:29N 49°18' W 122°57'0 0.1
2017-Sep-12 06:59N 49°18' W 122°57'0 0.0
2017-Sep-12 06:29N 49°18' W 122°57'0 0.1
2017-Sep-12 05:53N 49°18' W 122°57'0 0.2
2017-Sep-12 05:29N 49°18' W 122°57'0 0.2
2017-Sep-12 04:56N 49°18' W 122°57'0 0.2
2017-Sep-12 04:23N 49°18' W 122°57'0 0.2
2017-Sep-12 03:59N 49°18' W 122°57'0 0.0
2017-Sep-12 03:29N 49°18' W 122°57'0 0.1
2017-Sep-12 02:56N 49°18' W 122°57'0 0.0
2017-Sep-12 02:29N 49°18' W 122°57'  

Dump ship's entire track history